createdAt,value
2022-10-08T04:16:06.434Z,100356.41
2022-10-08T04:18:33.443Z,100348.63
2022-10-08T04:21:06.145Z,100351.94
2022-10-08T04:23:38.282Z,100349.28
2022-10-08T04:26:05.260Z,100345.59
2022-10-08T04:28:37.608Z,100349.25
2022-10-08T04:31:06.598Z,100350.13
2022-10-08T04:33:34.537Z,100357.13
2022-10-08T04:36:01.958Z,100355.47
2022-10-08T04:38:31.325Z,100357.31
2022-10-08T04:41:08.872Z,100358.34
2022-10-08T04:43:36.838Z,100365.38
2022-10-08T04:46:04.861Z,100369.91
2022-10-08T04:48:33.978Z,100371.75
2022-10-08T04:51:06.887Z,100373.56
2022-10-08T04:53:36.249Z,100381.47
2022-10-08T04:56:11.856Z,100381.59
2022-10-08T04:58:38.431Z,100386.13
2022-10-08T05:01:06.817Z,100394.19
2022-10-08T05:03:38.365Z,100392.59
2022-10-08T05:06:05.799Z,100392.56
2022-10-08T05:08:33.421Z,100396.00
2022-10-08T05:10:59.895Z,100392.59
2022-10-08T05:13:26.380Z,100392.69
2022-10-08T05:15:53.000Z,100389.06
2022-10-08T05:18:19.572Z,100399.59
2022-10-08T05:20:46.033Z,100392.59
2022-10-08T05:23:12.593Z,100397.00
2022-10-08T05:25:39.069Z,100393.66
2022-10-08T05:28:08.126Z,100389.19
2022-10-08T05:30:37.502Z,100389.34
2022-10-08T05:33:05.055Z,100396.44
2022-10-08T05:35:35.356Z,100402.94
2022-10-08T05:38:01.779Z,100411.78
2022-10-08T05:40:29.569Z,100409.25
2022-10-08T05:42:58.030Z,100411.09
2022-10-08T05:45:26.567Z,100415.38
2022-10-08T05:47:53.072Z,100420.50
2022-10-08T05:50:19.553Z,100422.34
2022-10-08T05:52:46.257Z,100428.38
2022-10-08T05:55:13.034Z,100426.84
2022-10-08T05:57:42.059Z,100425.81
2022-10-08T06:00:09.195Z,100433.78
2022-10-08T06:02:37.912Z,100431.16
2022-10-08T06:05:04.766Z,100433.66
2022-10-08T06:07:33.380Z,100437.13
2022-10-08T06:09:59.773Z,100441.41
2022-10-08T06:12:26.221Z,100434.44
2022-10-08T06:14:52.654Z,100431.81
2022-10-08T06:17:19.084Z,100434.41
2022-10-08T06:19:45.481Z,100435.31
2022-10-08T06:22:11.903Z,100437.94
2022-10-08T06:24:38.413Z,100441.38
2022-10-08T06:27:04.908Z,100448.31
2022-10-08T06:29:32.674Z,100447.28
2022-10-08T06:31:59.201Z,100443.91
2022-10-08T06:34:25.664Z,100434.28
2022-10-08T06:36:52.086Z,100439.50
2022-10-08T06:39:18.565Z,100446.91
2022-10-08T06:41:45.300Z,100453.13
2022-10-08T06:44:14.335Z,100453.91
2022-10-08T06:46:41.152Z,100455.50
2022-10-08T06:49:07.672Z,100455.38
2022-10-08T06:51:34.831Z,100458.03
2022-10-08T06:54:07.468Z,100461.47
2022-10-08T06:56:36.351Z,100460.44
2022-10-08T06:59:03.669Z,100466.34
2022-10-08T07:01:33.167Z,100469.63
2022-10-08T07:04:01.482Z,100463.41
2022-10-08T07:06:28.685Z,100462.38
2022-10-08T07:08:57.267Z,100465.78
2022-10-08T07:11:24.242Z,100465.69
2022-10-08T07:13:50.885Z,100465.59
2022-10-08T07:16:21.373Z,100469.06
2022-10-08T07:18:50.260Z,100467.22
2022-10-08T07:21:20.358Z,100474.16
2022-10-08T07:23:49.557Z,100476.66
2022-10-08T07:26:21.245Z,100480.94
2022-10-08T07:28:56.671Z,100480.00
2022-10-08T07:31:28.078Z,100480.81
2022-10-08T07:33:58.725Z,100490.31
2022-10-08T07:36:26.394Z,100497.19
2022-10-08T07:38:54.796Z,100504.19
2022-10-08T07:41:21.889Z,100503.19
2022-10-08T07:43:56.417Z,100494.41
2022-10-08T07:46:22.863Z,100500.28
2022-10-08T07:49:14.860Z,100502.59
2022-10-08T07:51:44.169Z,100506.75
2022-10-08T07:54:15.470Z,100511.81
2022-10-08T07:56:42.042Z,100509.59
2022-10-08T07:59:08.994Z,100510.94
2022-10-08T08:01:35.823Z,100508.63
2022-10-08T08:04:07.593Z,100511.53
2022-10-08T08:06:39.474Z,100510.72
2022-10-08T08:09:05.888Z,100516.28
2022-10-08T08:11:32.323Z,100513.66
2022-10-08T08:13:58.928Z,100522.28
2022-10-08T08:16:27.456Z,100514.72
2022-10-08T08:18:56.736Z,100519.13
2022-10-08T08:21:26.338Z,100531.66
2022-10-08T08:23:54.902Z,100525.22
2022-10-08T08:26:25.386Z,100527.97
2022-10-08T08:28:53.647Z,100538.88
2022-10-08T08:31:28.957Z,100533.06
2022-10-08T08:34:01.520Z,100542.88
2022-10-08T08:36:34.078Z,100542.41
2022-10-08T08:42:59.866Z,100554.53
2022-10-08T08:45:53.391Z,100556.47
2022-10-08T08:48:24.756Z,100563.16
2022-10-08T08:50:54.753Z,100563.00
2022-10-08T08:53:22.260Z,100569.63
2022-10-08T08:55:57.960Z,100568.41
2022-10-08T08:58:47.970Z,100574.13
2022-10-08T09:01:29.648Z,100575.97
2022-10-08T09:04:48.530Z,100577.81
2022-10-08T09:07:18.563Z,100578.97
2022-10-08T09:09:51.551Z,100579.50
2022-10-08T09:12:21.868Z,100576.75
2022-10-08T09:14:54.941Z,100581.75
2022-10-08T09:17:41.950Z,100585.66
2022-10-08T09:20:18.555Z,100585.38
2022-10-08T09:22:49.694Z,100586.69
2022-10-08T09:25:20.832Z,100587.69
2022-10-08T09:27:54.755Z,100592.66
2022-10-08T09:30:24.202Z,100579.53
2022-10-08T09:32:52.668Z,100590.13
2022-10-08T09:35:19.388Z,100596.94
2022-10-08T09:37:47.260Z,100599.63
2022-10-08T09:40:21.738Z,100603.09
2022-10-08T09:43:13.985Z,100618.94
2022-10-08T09:45:43.398Z,100622.53
2022-10-08T09:48:24.086Z,100620.63
2022-10-08T09:51:17.304Z,100619.53
2022-10-08T09:53:48.464Z,100612.66
2022-10-08T09:56:26.654Z,100618.63
2022-10-08T09:58:56.949Z,100623.44
2022-10-08T10:01:25.393Z,100635.22
2022-10-08T10:03:57.581Z,100631.03
2022-10-08T10:06:26.576Z,100628.09
2022-10-08T10:08:59.183Z,100635.75
2022-10-08T10:11:32.315Z,100634.09
2022-10-08T10:14:04.837Z,100646.19
2022-10-08T10:16:39.108Z,100644.66
2022-10-08T10:19:13.303Z,100650.00
2022-10-08T10:22:02.717Z,100651.75
2022-10-08T10:24:50.627Z,100650.31
2022-10-08T10:27:38.472Z,100648.06
2022-10-08T10:30:26.299Z,100654.94
2022-10-08T10:33:04.624Z,100645.25
2022-10-08T10:35:32.556Z,100638.19
2022-10-08T10:38:31.057Z,100649.44
2022-10-08T10:41:16.036Z,100650.75
2022-10-08T10:43:50.214Z,100634.28
2022-10-08T10:46:55.138Z,100644.16
2022-10-08T10:49:26.963Z,100638.88
2022-10-08T10:52:33.843Z,100643.88
2022-10-08T10:55:26.454Z,100634.31
2022-10-08T10:58:19.761Z,100641.25
2022-10-08T11:01:02.446Z,100648.00
2022-10-08T11:03:57.621Z,100651.38
2022-10-08T11:06:58.257Z,100651.66
2022-10-08T11:09:43.573Z,100641.84
2022-10-08T11:12:32.513Z,100657.91
2022-10-08T11:15:20.990Z,100653.78
2022-10-08T11:18:17.956Z,100650.31
2022-10-08T11:20:54.925Z,100667.06
2022-10-08T11:23:56.068Z,100664.59
2022-10-08T11:26:50.375Z,100661.75
2022-10-08T11:29:26.578Z,100663.84
2022-10-08T11:31:55.512Z,100661.84
2022-10-08T11:34:25.214Z,100667.13
2022-10-08T11:37:26.768Z,100660.53
2022-10-08T11:40:14.087Z,100675.69
2022-10-08T11:43:13.522Z,100670.63
2022-10-08T11:45:44.211Z,100658.34
2022-10-08T11:48:31.674Z,100663.53
2022-10-08T11:51:21.320Z,100655.50
2022-10-08T11:54:09.641Z,100658.97
2022-10-08T11:56:38.977Z,100650.22
2022-10-08T11:59:20.722Z,100646.13
2022-10-08T12:01:56.518Z,100652.34
2022-10-08T12:04:30.431Z,100649.78
2022-10-08T12:07:16.110Z,100661.75
2022-10-08T12:10:05.887Z,100664.66
2022-10-08T12:12:51.586Z,100658.69
2022-10-08T12:15:39.160Z,100659.19
2022-10-08T12:18:25.099Z,100667.16
2022-10-08T12:21:15.579Z,100664.78
2022-10-08T12:23:44.659Z,100656.94
2022-10-08T12:26:14.708Z,100664.00
2022-10-08T12:28:50.455Z,100663.38
2022-10-08T12:31:23.115Z,100666.69
2022-10-08T12:34:19.449Z,100658.38
2022-10-08T12:36:58.107Z,100660.47
2022-10-08T12:39:45.694Z,100650.06
2022-10-08T12:42:22.522Z,100657.31
2022-10-08T12:45:28.952Z,100657.53
2022-10-08T12:48:05.291Z,100653.00
2022-10-08T12:50:42.395Z,100648.19
2022-10-08T12:53:13.932Z,100651.09
2022-10-08T12:55:49.116Z,100654.31
2022-10-08T12:58:20.272Z,100653.41
2022-10-08T13:00:55.705Z,100653.13
2022-10-08T13:03:22.417Z,100647.53
2022-10-08T13:05:49.495Z,100655.88
2022-10-08T13:08:34.821Z,100645.34
2022-10-08T13:11:12.445Z,100645.91
2022-10-08T13:13:38.809Z,100651.63
2022-10-08T13:16:26.752Z,100643.53
2022-10-08T13:19:00.752Z,100629.59
2022-10-08T13:21:36.548Z,100656.63
2022-10-08T13:24:25.371Z,100646.50
2022-10-08T13:26:56.578Z,100657.78
2022-10-08T13:29:30.192Z,100647.38
2022-10-08T13:32:01.226Z,100650.44
2022-10-08T13:34:32.330Z,100652.00
2022-10-08T13:37:02.563Z,100648.09
2022-10-08T13:39:40.023Z,100646.59
2022-10-08T13:42:14.690Z,100637.59
2022-10-08T13:44:42.209Z,100647.91
2022-10-08T13:47:20.030Z,100651.34
2022-10-08T13:49:46.816Z,100634.44
2022-10-08T13:52:22.933Z,100643.56
2022-10-08T13:54:53.752Z,100655.84
2022-10-08T13:57:20.291Z,100636.34
2022-10-08T13:59:46.718Z,100640.66
2022-10-08T14:02:14.489Z,100637.78
2022-10-08T14:05:08.236Z,100640.81
2022-10-08T14:07:35.652Z,100636.63
2022-10-08T14:10:02.593Z,100641.50
2022-10-08T14:12:32.569Z,100642.03
2022-10-08T14:15:00.016Z,100639.56
2022-10-08T14:17:27.182Z,100641.31
2022-10-08T14:19:56.467Z,100635.50
2022-10-08T14:22:23.203Z,100640.06
2022-10-08T14:24:49.633Z,100639.06
2022-10-08T14:27:18.941Z,100637.03
2022-10-08T14:29:45.539Z,100642.94
2022-10-08T14:32:13.063Z,100637.28
2022-10-08T14:34:39.665Z,100642.03
2022-10-08T14:37:07.159Z,100640.28
2022-10-08T14:39:33.742Z,100643.88
2022-10-08T14:42:00.445Z,100645.31
2022-10-08T14:44:27.166Z,100640.59
2022-10-08T14:46:53.755Z,100640.34
2022-10-08T14:49:21.016Z,100639.47
2022-10-08T14:51:48.373Z,100639.19
2022-10-08T14:54:14.905Z,100640.84
2022-10-08T14:56:42.847Z,100640.38
2022-10-08T14:59:11.210Z,100640.50
2022-10-08T15:01:38.158Z,100635.72
2022-10-08T15:04:05.755Z,100632.56
2022-10-08T15:06:38.053Z,100629.38
2022-10-08T15:09:04.976Z,100624.47
2022-10-08T15:11:31.514Z,100630.19
2022-10-08T15:13:59.244Z,100632.56
2022-10-08T15:16:26.053Z,100632.88
2022-10-08T15:18:52.704Z,100626.69
2022-10-08T15:21:19.254Z,100628.75
2022-10-08T15:23:45.921Z,100622.13
2022-10-08T15:26:17.350Z,100627.13
2022-10-08T15:28:46.303Z,100628.31
2022-10-08T15:31:26.105Z,100624.94
2022-10-08T15:34:22.479Z,100624.56
2022-10-08T15:36:49.380Z,100626.22
2022-10-08T15:39:18.229Z,100629.03
2022-10-08T15:41:48.288Z,100642.81
2022-10-08T15:44:26.689Z,100642.38
2022-10-08T15:47:06.935Z,100644.22
2022-10-08T15:49:36.852Z,100648.22
2022-10-08T15:52:05.646Z,100652.34
2022-10-08T15:54:38.717Z,100653.72
2022-10-08T15:57:15.489Z,100660.47
2022-10-08T15:59:42.397Z,100660.63
2022-10-08T16:02:16.660Z,100668.75
2022-10-08T16:04:48.511Z,100667.75
2022-10-08T16:07:16.288Z,100669.97
2022-10-08T16:09:44.154Z,100674.91
2022-10-08T16:12:16.797Z,100673.28
2022-10-08T16:14:46.297Z,100683.06
2022-10-08T16:17:13.302Z,100688.75
2022-10-08T16:19:40.119Z,100681.84
2022-10-08T16:22:07.967Z,100683.50
2022-10-08T16:24:34.538Z,100691.34
2022-10-08T16:27:01.086Z,100692.59
2022-10-08T16:29:27.775Z,100692.81
2022-10-08T16:31:54.456Z,100697.84
2022-10-08T16:34:22.747Z,100695.34
2022-10-08T16:36:49.885Z,100698.97
2022-10-08T16:39:21.519Z,100705.88
2022-10-08T16:41:51.480Z,100704.47
2022-10-08T16:44:27.384Z,100711.34
2022-10-08T16:46:53.998Z,100719.81
2022-10-08T16:49:25.486Z,100727.19
2022-10-08T16:51:54.872Z,100730.75
2022-10-08T16:54:22.080Z,100739.19
2022-10-08T16:56:48.588Z,100748.91
2022-10-08T16:59:23.689Z,100748.44
2022-10-08T17:01:53.202Z,100751.41
2022-10-08T17:04:22.302Z,100758.56
2022-10-08T17:06:48.983Z,100760.84
2022-10-08T17:09:15.531Z,100763.75
2022-10-08T17:11:42.272Z,100765.28
2022-10-08T17:14:11.553Z,100774.88
2022-10-08T17:16:38.933Z,100778.41
2022-10-08T17:19:05.839Z,100779.09
2022-10-08T17:21:34.594Z,100782.88
2022-10-08T17:24:02.437Z,100784.25
2022-10-08T17:26:30.423Z,100793.31
2022-10-08T17:28:57.990Z,100800.56
2022-10-08T17:31:26.662Z,100801.72
2022-10-08T17:33:53.481Z,100811.53
2022-10-08T17:36:26.277Z,100813.78
2022-10-08T17:38:58.214Z,100816.66
2022-10-08T17:41:32.880Z,100822.09
2022-10-08T17:44:01.782Z,100823.22
2022-10-08T17:46:31.350Z,100822.50
2022-10-08T17:48:58.965Z,100824.13
2022-10-08T17:51:28.062Z,100831.66
2022-10-08T17:54:03.039Z,100825.69
2022-10-08T17:56:30.109Z,100834.19
2022-10-08T17:58:57.413Z,100833.81
2022-10-08T18:01:26.891Z,100839.03
2022-10-08T18:04:02.031Z,100852.03
2022-10-08T18:06:30.002Z,100857.34
2022-10-08T18:08:58.208Z,100860.72
2022-10-08T18:11:26.324Z,100868.16
2022-10-08T18:14:19.610Z,100860.91
2022-10-08T18:16:48.361Z,100871.56
2022-10-08T18:19:19.649Z,100868.94
2022-10-08T18:21:48.427Z,100878.06
2022-10-08T18:24:30.306Z,100885.34
2022-10-08T18:27:03.047Z,100883.69
2022-10-08T18:29:29.571Z,100884.34
2022-10-08T18:31:58.349Z,100883.41
2022-10-08T18:34:25.700Z,100882.44
2022-10-08T18:36:52.162Z,100896.69
2022-10-08T18:39:23.677Z,100894.06
2022-10-08T18:41:59.884Z,100900.56
2022-10-08T18:44:26.853Z,100905.53
2022-10-08T18:46:55.103Z,100904.53
2022-10-08T18:49:30.353Z,100909.81
2022-10-08T18:51:57.255Z,100909.06
2022-10-08T18:54:24.087Z,100906.63
2022-10-08T18:56:52.759Z,100907.75
2022-10-08T18:59:19.267Z,100905.19
2022-10-08T19:01:49.748Z,100907.13
2022-10-08T19:04:19.570Z,100901.88
2022-10-08T19:06:53.298Z,100910.91
2022-10-08T19:09:20.910Z,100914.72
2022-10-08T19:11:50.918Z,100914.69
2022-10-08T19:14:19.516Z,100912.25
2022-10-08T19:16:46.857Z,100913.25
2022-10-08T19:19:27.660Z,100919.56
2022-10-08T19:22:00.099Z,100915.19
2022-10-08T19:24:29.302Z,100923.09
2022-10-08T19:26:57.289Z,100926.66
2022-10-08T19:29:26.752Z,100932.84
2022-10-08T19:31:56.586Z,100931.13
2022-10-08T19:34:25.970Z,100935.50
2022-10-08T19:36:52.401Z,100931.16
2022-10-08T19:39:31.038Z,100938.34
2022-10-08T19:41:57.740Z,100936.59
2022-10-08T19:44:24.501Z,100939.22
2022-10-08T19:46:51.059Z,100953.34
2022-10-08T19:49:18.640Z,100948.09
2022-10-08T19:51:45.953Z,100951.56
2022-10-08T19:54:13.066Z,100961.22
2022-10-08T19:56:45.134Z,100959.47
2022-10-08T19:59:12.245Z,100958.81
2022-10-08T20:01:39.826Z,100965.84
2022-10-08T20:04:08.512Z,100970.03
2022-10-08T20:06:39.014Z,100973.59
2022-10-08T20:09:07.001Z,100976.19
2022-10-08T20:11:35.600Z,100982.25
2022-10-08T20:14:02.790Z,100979.66
2022-10-08T20:16:32.899Z,100979.16
2022-10-08T20:19:20.816Z,100982.78
2022-10-08T20:21:48.712Z,100985.56
2022-10-08T20:24:19.559Z,100990.00
2022-10-08T20:26:51.905Z,100990.28
2022-10-08T20:29:20.949Z,100986.13
2022-10-08T20:31:54.941Z,100980.13
2022-10-08T20:34:23.755Z,100988.78
2022-10-08T20:36:50.836Z,100993.09
2022-10-08T20:39:19.782Z,100992.16
2022-10-08T20:41:46.740Z,100990.59
2022-10-08T20:44:13.683Z,100991.56
2022-10-08T20:46:40.340Z,100991.69
2022-10-08T20:49:07.610Z,100996.06
2022-10-08T20:51:34.429Z,100989.19
2022-10-08T20:54:04.176Z,100994.50
2022-10-08T20:56:38.449Z,100995.31
2022-10-08T20:59:07.491Z,101003.19
2022-10-08T21:01:42.955Z,101007.84
2022-10-08T21:04:11.932Z,101012.28
2022-10-08T21:06:41.139Z,101002.78
2022-10-08T21:09:08.004Z,101005.47
2022-10-08T21:11:35.589Z,100995.94
2022-10-08T21:14:03.589Z,101010.88
2022-10-08T21:16:38.823Z,101007.22
2022-10-08T21:19:09.809Z,101015.09
2022-10-08T21:21:36.311Z,101014.19
2022-10-08T21:24:02.788Z,101020.50
2022-10-08T21:26:34.978Z,101013.38
2022-10-08T21:29:03.577Z,101012.53
2022-10-08T21:31:31.773Z,101023.13
2022-10-08T21:33:58.755Z,101029.34
2022-10-08T21:36:27.900Z,101017.94
2022-10-08T21:38:55.201Z,101023.19
2022-10-08T21:41:23.617Z,101023.19
2022-10-08T21:43:53.018Z,101031.97
2022-10-08T21:46:22.801Z,101031.97
2022-10-08T21:48:57.565Z,101033.84
2022-10-08T21:51:25.105Z,101030.34
2022-10-08T21:53:57.553Z,101030.53
2022-10-08T21:56:30.044Z,101020.88
2022-10-08T21:58:59.376Z,101023.53
